sensor_id;sensor_type;location;lat;lon;timestamp;temperature;humidity
11229;DHT22;5671;47.936;8.716;2022-11-15T00:02:16;2.20;92.40
11229;DHT22;5671;47.936;8.716;2022-11-15T00:04:44;2.20;92.60
11229;DHT22;5671;47.936;8.716;2022-11-15T00:07:11;2.20;92.50
11229;DHT22;5671;47.936;8.716;2022-11-15T00:09:38;2.20;92.60
11229;DHT22;5671;47.936;8.716;2022-11-15T00:12:05;2.10;92.60
11229;DHT22;5671;47.936;8.716;2022-11-15T00:14:32;2.10;92.60
11229;DHT22;5671;47.936;8.716;2022-11-15T00:16:59;2.10;92.60
11229;DHT22;5671;47.936;8.716;2022-11-15T00:19:26;2.10;92.60
11229;DHT22;5671;47.936;8.716;2022-11-15T00:21:54;2.10;93.00
11229;DHT22;5671;47.936;8.716;2022-11-15T00:24:21;2.10;93.20
11229;DHT22;5671;47.936;8.716;2022-11-15T00:26:48;2.10;93.30
11229;DHT22;5671;47.936;8.716;2022-11-15T00:29:15;2.10;93.60
11229;DHT22;5671;47.936;8.716;2022-11-15T00:31:42;2.10;93.40
11229;DHT22;5671;47.936;8.716;2022-11-15T00:34:10;2.00;93.50
11229;DHT22;5671;47.936;8.716;2022-11-15T00:36:37;2.00;93.40
11229;DHT22;5671;47.936;8.716;2022-11-15T00:39:05;2.00;93.50
11229;DHT22;5671;47.936;8.716;2022-11-15T00:41:32;2.00;93.40
11229;DHT22;5671;47.936;8.716;2022-11-15T00:43:59;2.00;93.40
11229;DHT22;5671;47.936;8.716;2022-11-15T00:46:26;2.00;93.30
11229;DHT22;5671;47.936;8.716;2022-11-15T00:48:53;1.90;93.10
11229;DHT22;5671;47.936;8.716;2022-11-15T00:51:20;1.90;93.10
11229;DHT22;5671;47.936;8.716;2022-11-15T00:53:47;1.90;92.90
11229;DHT22;5671;47.936;8.716;2022-11-15T00:56:15;1.90;92.80
11229;DHT22;5671;47.936;8.716;2022-11-15T00:58:42;1.80;92.80
11229;DHT22;5671;47.936;8.716;2022-11-15T01:01:11;1.80;93.00
11229;DHT22;5671;47.936;8.716;2022-11-15T01:03:41;1.80;93.00
11229;DHT22;5671;47.936;8.716;2022-11-15T01:06:09;1.80;93.10
11229;DHT22;5671;47.936;8.716;2022-11-15T01:08:38;1.80;93.10
11229;DHT22;5671;47.936;8.716;2022-11-15T01:11:08;1.70;93.10
11229;DHT22;5671;47.936;8.716;2022-11-15T01:13:38;1.70;93.10
11229;DHT22;5671;47.936;8.716;2022-11-15T01:16:07;1.70;93.10
11229;DHT22;5671;47.936;8.716;2022-11-15T01:18:34;1.60;93.00
11229;DHT22;5671;47.936;8.716;2022-11-15T01:21:05;1.60;93.10
11229;DHT22;5671;47.936;8.716;2022-11-15T01:23:32;1.60;93.00
11229;DHT22;5671;47.936;8.716;2022-11-15T01:25:59;1.60;92.80
11229;DHT22;5671;47.936;8.716;2022-11-15T01:28:30;1.60;92.70
11229;DHT22;5671;47.936;8.716;2022-11-15T01:30:59;1.60;92.70
11229;DHT22;5671;47.936;8.716;2022-11-15T01:33:26;1.50;92.80
11229;DHT22;5671;47.936;8.716;2022-11-15T01:35:53;1.50;92.80
11229;DHT22;5671;47.936;8.716;2022-11-15T01:38:20;1.50;92.80
11229;DHT22;5671;47.936;8.716;2022-11-15T01:40:47;1.50;93.00
11229;DHT22;5671;47.936;8.716;2022-11-15T01:43:22;1.50;93.10
11229;DHT22;5671;47.936;8.716;2022-11-15T01:45:52;1.50;93.10
11229;DHT22;5671;47.936;8.716;2022-11-15T01:48:25;1.50;93.20
11229;DHT22;5671;47.936;8.716;2022-11-15T01:50:55;1.50;93.20
11229;DHT22;5671;47.936;8.716;2022-11-15T01:53:23;1.50;93.30
11229;DHT22;5671;47.936;8.716;2022-11-15T01:55:52;1.50;93.40
11229;DHT22;5671;47.936;8.716;2022-11-15T01:58:20;1.50;93.30
11229;DHT22;5671;47.936;8.716;2022-11-15T02:00:48;1.50;93.50
11229;DHT22;5671;47.936;8.716;2022-11-15T02:03:16;1.50;93.70
11229;DHT22;5671;47.936;8.716;2022-11-15T02:05:44;1.50;93.80
11229;DHT22;5671;47.936;8.716;2022-11-15T02:08:11;1.50;93.90
11229;DHT22;5671;47.936;8.716;2022-11-15T02:10:45;1.50;94.00
11229;DHT22;5671;47.936;8.716;2022-11-15T02:13:13;1.50;94.10
11229;DHT22;5671;47.936;8.716;2022-11-15T02:15:48;1.50;94.00
11229;DHT22;5671;47.936;8.716;2022-11-15T02:18:24;1.60;94.00
11229;DHT22;5671;47.936;8.716;2022-11-15T02:21:04;1.60;94.00
11229;DHT22;5671;47.936;8.716;2022-11-15T02:30:04;1.60;94.20
11229;DHT22;5671;47.936;8.716;2022-11-15T02:32:38;1.70;94.30
11229;DHT22;5671;47.936;8.716;2022-11-15T02:35:15;1.70;94.40
11229;DHT22;5671;47.936;8.716;2022-11-15T02:37:47;1.70;94.50
11229;DHT22;5671;47.936;8.716;2022-11-15T02:40:26;1.70;94.40
11229;DHT22;5671;47.936;8.716;2022-11-15T02:42:59;1.70;94.50
11229;DHT22;5671;47.936;8.716;2022-11-15T02:45:46;1.80;94.60
11229;DHT22;5671;47.936;8.716;2022-11-15T02:48:16;1.80;94.70
11229;DHT22;5671;47.936;8.716;2022-11-15T02:50:45;1.80;94.70
11229;DHT22;5671;47.936;8.716;2022-11-15T02:53:14;1.80;94.80
11229;DHT22;5671;47.936;8.716;2022-11-15T02:55:44;1.80;94.70
11229;DHT22;5671;47.936;8.716;2022-11-15T02:58:48;1.80;94.60
11229;DHT22;5671;47.936;8.716;2022-11-15T03:01:29;1.90;94.70
11229;DHT22;5671;47.936;8.716;2022-11-15T03:04:13;1.90;94.70
11229;DHT22;5671;47.936;8.716;2022-11-15T03:06:47;1.90;94.60
11229;DHT22;5671;47.936;8.716;2022-11-15T03:09:27;1.90;94.60
11229;DHT22;5671;47.936;8.716;2022-11-15T03:11:59;1.90;94.60
11229;DHT22;5671;47.936;8.716;2022-11-15T03:14:30;1.90;94.70
11229;DHT22;5671;47.936;8.716;2022-11-15T03:17:04;1.90;94.70
11229;DHT22;5671;47.936;8.716;2022-11-15T03:19:35;1.90;94.80
11229;DHT22;5671;47.936;8.716;2022-11-15T03:22:08;1.90;94.80
11229;DHT22;5671;47.936;8.716;2022-11-15T03:24:38;2.00;94.90
11229;DHT22;5671;47.936;8.716;2022-11-15T03:27:07;2.00;95.10
11229;DHT22;5671;47.936;8.716;2022-11-15T03:29:38;2.00;95.20
11229;DHT22;5671;47.936;8.716;2022-11-15T03:32:09;2.00;95.20
11229;DHT22;5671;47.936;8.716;2022-11-15T03:34:42;2.10;95.30
11229;DHT22;5671;47.936;8.716;2022-11-15T03:37:14;2.10;95.30
11229;DHT22;5671;47.936;8.716;2022-11-15T03:39:41;2.10;95.40
11229;DHT22;5671;47.936;8.716;2022-11-15T03:42:18;2.20;95.30
11229;DHT22;5671;47.936;8.716;2022-11-15T03:44:52;2.20;95.30
11229;DHT22;5671;47.936;8.716;2022-11-15T03:47:25;2.20;95.30
11229;DHT22;5671;47.936;8.716;2022-11-15T03:49:58;2.20;95.10
11229;DHT22;5671;47.936;8.716;2022-11-15T03:52:31;2.20;95.00
11229;DHT22;5671;47.936;8.716;2022-11-15T03:55:00;2.20;94.80
11229;DHT22;5671;47.936;8.716;2022-11-15T03:57:28;2.20;94.70
11229;DHT22;5671;47.936;8.716;2022-11-15T03:59:55;2.20;94.60
11229;DHT22;5671;47.936;8.716;2022-11-15T04:02:22;2.20;94.60
11229;DHT22;5671;47.936;8.716;2022-11-15T04:04:49;2.20;94.60
11229;DHT22;5671;47.936;8.716;2022-11-15T04:07:17;2.20;94.60
11229;DHT22;5671;47.936;8.716;2022-11-15T04:09:44;2.30;94.40
11229;DHT22;5671;47.936;8.716;2022-11-15T04:12:31;2.30;94.50
11229;DHT22;5671;47.936;8.716;2022-11-15T04:15:03;2.30;94.50
11229;DHT22;5671;47.936;8.716;2022-11-15T04:17:38;2.30;94.50
11229;DHT22;5671;47.936;8.716;2022-11-15T04:20:09;2.30;94.40
11229;DHT22;5671;47.936;8.716;2022-11-15T04:22:55;2.30;94.50
11229;DHT22;5671;47.936;8.716;2022-11-15T04:25:41;2.30;94.40
11229;DHT22;5671;47.936;8.716;2022-11-15T04:28:08;2.30;94.50
11229;DHT22;5671;47.936;8.716;2022-11-15T04:30:35;2.30;94.40
11229;DHT22;5671;47.936;8.716;2022-11-15T04:33:02;2.30;94.50
11229;DHT22;5671;47.936;8.716;2022-11-15T04:35:32;2.30;94.40
11229;DHT22;5671;47.936;8.716;2022-11-15T04:38:01;2.30;94.50
11229;DHT22;5671;47.936;8.716;2022-11-15T04:40:27;2.30;94.50
11229;DHT22;5671;47.936;8.716;2022-11-15T04:42:55;2.30;94.40
11229;DHT22;5671;47.936;8.716;2022-11-15T04:45:22;2.30;94.30
11229;DHT22;5671;47.936;8.716;2022-11-15T04:47:49;2.30;94.30
11229;DHT22;5671;47.936;8.716;2022-11-15T04:50:16;2.30;94.30
11229;DHT22;5671;47.936;8.716;2022-11-15T04:52:49;2.30;94.30
11229;DHT22;5671;47.936;8.716;2022-11-15T04:55:18;2.30;94.20
11229;DHT22;5671;47.936;8.716;2022-11-15T04:57:45;2.30;94.20
11229;DHT22;5671;47.936;8.716;2022-11-15T05:00:15;2.30;94.30
11229;DHT22;5671;47.936;8.716;2022-11-15T05:02:43;2.30;94.30
11229;DHT22;5671;47.936;8.716;2022-11-15T05:05:27;2.30;94.30
11229;DHT22;5671;47.936;8.716;2022-11-15T05:07:54;2.30;94.40
11229;DHT22;5671;47.936;8.716;2022-11-15T05:10:23;2.40;94.50
11229;DHT22;5671;47.936;8.716;2022-11-15T05:12:50;2.40;94.50
11229;DHT22;5671;47.936;8.716;2022-11-15T05:15:17;2.40;94.50
11229;DHT22;5671;47.936;8.716;2022-11-15T05:17:43;2.40;94.50
11229;DHT22;5671;47.936;8.716;2022-11-15T05:20:13;2.40;94.50
11229;DHT22;5671;47.936;8.716;2022-11-15T05:22:40;2.40;94.50
11229;DHT22;5671;47.936;8.716;2022-11-15T05:25:08;2.40;94.50
11229;DHT22;5671;47.936;8.716;2022-11-15T05:27:36;2.40;94.60
11229;DHT22;5671;47.936;8.716;2022-11-15T05:30:03;2.50;94.50
11229;DHT22;5671;47.936;8.716;2022-11-15T05:32:31;2.50;94.50
11229;DHT22;5671;47.936;8.716;2022-11-15T05:34:58;2.50;94.60
11229;DHT22;5671;47.936;8.716;2022-11-15T05:38:04;2.50;94.70
11229;DHT22;5671;47.936;8.716;2022-11-15T05:43:51;2.50;94.70
11229;DHT22;5671;47.936;8.716;2022-11-15T05:46:28;2.50;94.70
11229;DHT22;5671;47.936;8.716;2022-11-15T05:48:56;2.60;94.70
11229;DHT22;5671;47.936;8.716;2022-11-15T05:51:24;2.50;94.70
11229;DHT22;5671;47.936;8.716;2022-11-15T05:53:53;2.60;94.80
11229;DHT22;5671;47.936;8.716;2022-11-15T05:56:24;2.60;94.80
11229;DHT22;5671;47.936;8.716;2022-11-15T05:58:53;2.60;94.70
11229;DHT22;5671;47.936;8.716;2022-11-15T06:01:22;2.60;94.60
11229;DHT22;5671;47.936;8.716;2022-11-15T06:03:49;2.60;94.60
11229;DHT22;5671;47.936;8.716;2022-11-15T06:06:16;2.60;94.60
11229;DHT22;5671;47.936;8.716;2022-11-15T06:08:43;2.60;94.60
11229;DHT22;5671;47.936;8.716;2022-11-15T06:11:10;2.60;94.60
11229;DHT22;5671;47.936;8.716;2022-11-15T06:13:37;2.60;94.60
11229;DHT22;5671;47.936;8.716;2022-11-15T06:16:05;2.60;94.70
11229;DHT22;5671;47.936;8.716;2022-11-15T06:18:33;2.60;94.60
11229;DHT22;5671;47.936;8.716;2022-11-15T06:21:00;2.60;94.60
11229;DHT22;5671;47.936;8.716;2022-11-15T06:23:28;2.60;94.50
11229;DHT22;5671;47.936;8.716;2022-11-15T06:25:57;2.60;94.60
11229;DHT22;5671;47.936;8.716;2022-11-15T06:28:24;2.60;94.60
11229;DHT22;5671;47.936;8.716;2022-11-15T06:30:51;2.60;94.60
11229;DHT22;5671;47.936;8.716;2022-11-15T06:33:20;2.60;94.60
11229;DHT22;5671;47.936;8.716;2022-11-15T06:35:47;2.60;94.50
11229;DHT22;5671;47.936;8.716;2022-11-15T06:38:13;2.60;94.50
11229;DHT22;5671;47.936;8.716;2022-11-15T06:40:40;2.60;94.50
11229;DHT22;5671;47.936;8.716;2022-11-15T06:43:07;2.70;94.40
11229;DHT22;5671;47.936;8.716;2022-11-15T06:45:34;2.70;94.40
11229;DHT22;5671;47.936;8.716;2022-11-15T06:48:01;2.70;94.40
11229;DHT22;5671;47.936;8.716;2022-11-15T06:50:30;2.70;94.40
11229;DHT22;5671;47.936;8.716;2022-11-15T06:53:01;2.70;94.50
11229;DHT22;5671;47.936;8.716;2022-11-15T06:55:28;2.80;94.80
11229;DHT22;5671;47.936;8.716;2022-11-15T06:57:55;2.80;94.90
11229;DHT22;5671;47.936;8.716;2022-11-15T07:00:22;2.80;94.90
11229;DHT22;5671;47.936;8.716;2022-11-15T07:02:49;2.90;95.10
11229;DHT22;5671;47.936;8.716;2022-11-15T07:05:17;2.90;95.20
11229;DHT22;5671;47.936;8.716;2022-11-15T07:07:51;3.00;95.30
11229;DHT22;5671;47.936;8.716;2022-11-15T07:10:18;3.10;95.50
11229;DHT22;5671;47.936;8.716;2022-11-15T07:12:47;3.10;95.60
11229;DHT22;5671;47.936;8.716;2022-11-15T07:15:14;3.20;95.60
11229;DHT22;5671;47.936;8.716;2022-11-15T07:17:41;3.20;95.60
11229;DHT22;5671;47.936;8.716;2022-11-15T07:20:08;3.30;95.70
11229;DHT22;5671;47.936;8.716;2022-11-15T07:22:35;3.30;95.80
11229;DHT22;5671;47.936;8.716;2022-11-15T07:25:04;3.40;95.80
11229;DHT22;5671;47.936;8.716;2022-11-15T07:27:31;3.50;95.80
11229;DHT22;5671;47.936;8.716;2022-11-15T07:29:58;3.50;95.90
11229;DHT22;5671;47.936;8.716;2022-11-15T07:32:26;3.50;95.70
11229;DHT22;5671;47.936;8.716;2022-11-15T07:34:53;3.60;95.70
11229;DHT22;5671;47.936;8.716;2022-11-15T07:37:20;3.60;95.60
11229;DHT22;5671;47.936;8.716;2022-11-15T07:39:47;3.70;95.70
11229;DHT22;5671;47.936;8.716;2022-11-15T07:42:15;3.70;95.80
11229;DHT22;5671;47.936;8.716;2022-11-15T07:45:03;3.80;95.60
11229;DHT22;5671;47.936;8.716;2022-11-15T07:47:32;3.80;95.60
11229;DHT22;5671;47.936;8.716;2022-11-15T07:50:01;3.90;95.60
11229;DHT22;5671;47.936;8.716;2022-11-15T07:52:28;3.90;95.50
11229;DHT22;5671;47.936;8.716;2022-11-15T07:54:55;4.00;95.50
11229;DHT22;5671;47.936;8.716;2022-11-15T07:57:35;4.10;95.50
11229;DHT22;5671;47.936;8.716;2022-11-15T08:00:12;4.10;95.40
11229;DHT22;5671;47.936;8.716;2022-11-15T08:02:42;4.20;95.20
11229;DHT22;5671;47.936;8.716;2022-11-15T08:05:12;4.20;95.20
11229;DHT22;5671;47.936;8.716;2022-11-15T08:07:41;4.20;95.10
11229;DHT22;5671;47.936;8.716;2022-11-15T08:10:10;4.30;95.00
11229;DHT22;5671;47.936;8.716;2022-11-15T08:12:40;4.30;94.90
11229;DHT22;5671;47.936;8.716;2022-11-15T08:15:21;4.40;94.90
11229;DHT22;5671;47.936;8.716;2022-11-15T08:18:23;4.40;94.80
11229;DHT22;5671;47.936;8.716;2022-11-15T10:44:12;9.20;86.20
11229;DHT22;5671;47.936;8.716;2022-11-15T10:46:45;9.30;86.80
11229;DHT22;5671;47.936;8.716;2022-11-15T10:49:15;9.40;86.20
11229;DHT22;5671;47.936;8.716;2022-11-15T10:51:46;9.40;85.30
11229;DHT22;5671;47.936;8.716;2022-11-15T10:54:25;9.40;85.20
11229;DHT22;5671;47.936;8.716;2022-11-15T10:56:57;9.50;85.80
11229;DHT22;5671;47.936;8.716;2022-11-15T10:59:30;9.50;85.50
11229;DHT22;5671;47.936;8.716;2022-11-15T11:01:59;9.50;84.70
11229;DHT22;5671;47.936;8.716;2022-11-15T11:04:26;9.50;84.80
11229;DHT22;5671;47.936;8.716;2022-11-15T11:06:54;9.60;84.30
11229;DHT22;5671;47.936;8.716;2022-11-15T11:09:28;9.60;84.70
11229;DHT22;5671;47.936;8.716;2022-11-15T11:11:57;9.60;83.80
11229;DHT22;5671;47.936;8.716;2022-11-15T11:14:27;9.60;84.80
11229;DHT22;5671;47.936;8.716;2022-11-15T11:17:02;9.60;84.50
11229;DHT22;5671;47.936;8.716;2022-11-15T11:19:43;9.70;84.30
11229;DHT22;5671;47.936;8.716;2022-11-15T11:22:56;9.70;84.40
11229;DHT22;5671;47.936;8.716;2022-11-15T11:25:35;9.70;83.80
11229;DHT22;5671;47.936;8.716;2022-11-15T11:28:33;9.70;83.20
11229;DHT22;5671;47.936;8.716;2022-11-15T11:31:45;9.70;84.10
11229;DHT22;5671;47.936;8.716;2022-11-15T11:34:30;9.70;83.40
11229;DHT22;5671;47.936;8.716;2022-11-15T11:37:11;9.70;82.80
11229;DHT22;5671;47.936;8.716;2022-11-15T11:39:49;9.70;83.90
11229;DHT22;5671;47.936;8.716;2022-11-15T11:42:33;9.70;84.20
11229;DHT22;5671;47.936;8.716;2022-11-15T11:45:15;9.60;83.10
11229;DHT22;5671;47.936;8.716;2022-11-15T11:47:48;9.70;84.20
11229;DHT22;5671;47.936;8.716;2022-11-15T13:22:22;9.20;85.20
11229;DHT22;5671;47.936;8.716;2022-11-15T13:25:15;9.20;85.70
11229;DHT22;5671;47.936;8.716;2022-11-15T13:31:13;9.20;85.90
11229;DHT22;5671;47.936;8.716;2022-11-15T13:33:43;9.20;86.20
11229;DHT22;5671;47.936;8.716;2022-11-15T13:36:14;9.20;86.50
11229;DHT22;5671;47.936;8.716;2022-11-15T13:38:44;9.20;86.60
11229;DHT22;5671;47.936;8.716;2022-11-15T13:41:17;9.10;86.40
11229;DHT22;5671;47.936;8.716;2022-11-15T13:43:51;9.10;86.70
11229;DHT22;5671;47.936;8.716;2022-11-15T13:46:20;9.00;86.80
11229;DHT22;5671;47.936;8.716;2022-11-15T13:48:54;9.00;86.90
11229;DHT22;5671;47.936;8.716;2022-11-15T13:51:25;9.00;87.10
11229;DHT22;5671;47.936;8.716;2022-11-15T13:57:30;8.90;87.30
11229;DHT22;5671;47.936;8.716;2022-11-15T14:00:05;8.80;87.40
11229;DHT22;5671;47.936;8.716;2022-11-15T16:23:44;7.80;90.80
11229;DHT22;5671;47.936;8.716;2022-11-15T16:27:02;7.80;90.80
11229;DHT22;5671;47.936;8.716;2022-11-15T16:32:50;7.70;90.80
11229;DHT22;5671;47.936;8.716;2022-11-15T16:36:22;7.80;90.90
11229;DHT22;5671;47.936;8.716;2022-11-15T16:41:27;7.70;90.90
11229;DHT22;5671;47.936;8.716;2022-11-15T16:43:54;7.70;91.00
11229;DHT22;5671;47.936;8.716;2022-11-15T16:46:22;7.70;91.20
11229;DHT22;5671;47.936;8.716;2022-11-15T16:48:50;7.60;91.40
11229;DHT22;5671;47.936;8.716;2022-11-15T16:51:17;7.60;91.30
11229;DHT22;5671;47.936;8.716;2022-11-15T16:53:44;7.60;91.20
11229;DHT22;5671;47.936;8.716;2022-11-15T16:56:23;7.60;91.10
11229;DHT22;5671;47.936;8.716;2022-11-15T16:58:52;7.60;91.20
11229;DHT22;5671;47.936;8.716;2022-11-15T17:01:22;7.50;91.10
11229;DHT22;5671;47.936;8.716;2022-11-15T17:03:50;7.50;91.10
11229;DHT22;5671;47.936;8.716;2022-11-15T17:06:17;7.50;91.00
11229;DHT22;5671;47.936;8.716;2022-11-15T17:08:45;7.50;91.00
11229;DHT22;5671;47.936;8.716;2022-11-15T17:11:15;7.50;90.90
11229;DHT22;5671;47.936;8.716;2022-11-15T17:13:42;7.50;90.90
11229;DHT22;5671;47.936;8.716;2022-11-15T17:16:12;7.50;90.90
11229;DHT22;5671;47.936;8.716;2022-11-15T17:18:40;7.40;91.10
11229;DHT22;5671;47.936;8.716;2022-11-15T17:21:12;7.40;91.00
11229;DHT22;5671;47.936;8.716;2022-11-15T17:23:39;7.40;91.00
11229;DHT22;5671;47.936;8.716;2022-11-15T17:26:07;7.40;90.90
11229;DHT22;5671;47.936;8.716;2022-11-15T17:28:39;7.40;91.10
11229;DHT22;5671;47.936;8.716;2022-11-15T17:31:07;7.40;91.00
11229;DHT22;5671;47.936;8.716;2022-11-15T17:33:37;7.30;91.00
11229;DHT22;5671;47.936;8.716;2022-11-15T17:36:07;7.40;90.90
11229;DHT22;5671;47.936;8.716;2022-11-15T17:38:35;7.30;90.90
11229;DHT22;5671;47.936;8.716;2022-11-15T17:41:08;7.30;91.00
11229;DHT22;5671;47.936;8.716;2022-11-15T17:43:44;7.30;91.00
11229;DHT22;5671;47.936;8.716;2022-11-15T17:49:37;7.30;91.40
11229;DHT22;5671;47.936;8.716;2022-11-15T17:52:38;7.20;91.60
11229;DHT22;5671;47.936;8.716;2022-11-15T17:55:08;7.20;91.60
11229;DHT22;5671;47.936;8.716;2022-11-15T18:29:45;7.10;91.50
11229;DHT22;5671;47.936;8.716;2022-11-15T18:32:32;7.10;91.50
11229;DHT22;5671;47.936;8.716;2022-11-15T18:38:32;7.00;91.80
11229;DHT22;5671;47.936;8.716;2022-11-15T18:41:45;7.00;91.90
11229;DHT22;5671;47.936;8.716;2022-11-15T18:44:15;7.00;92.00
11229;DHT22;5671;47.936;8.716;2022-11-15T18:46:51;7.00;92.00
11229;DHT22;5671;47.936;8.716;2022-11-15T18:49:18;6.90;91.90
11229;DHT22;5671;47.936;8.716;2022-11-15T18:51:46;6.90;91.80
11229;DHT22;5671;47.936;8.716;2022-11-15T18:54:14;6.90;91.80
11229;DHT22;5671;47.936;8.716;2022-11-15T18:56:42;6.90;91.80
11229;DHT22;5671;47.936;8.716;2022-11-15T18:59:10;6.90;92.00
11229;DHT22;5671;47.936;8.716;2022-11-15T19:01:39;6.90;92.00
11229;DHT22;5671;47.936;8.716;2022-11-15T19:04:09;6.90;92.00
11229;DHT22;5671;47.936;8.716;2022-11-15T19:06:38;6.90;92.10
11229;DHT22;5671;47.936;8.716;2022-11-15T19:09:07;6.80;92.00
11229;DHT22;5671;47.936;8.716;2022-11-15T19:11:35;6.80;92.00
11229;DHT22;5671;47.936;8.716;2022-11-15T19:14:05;6.80;91.90
11229;DHT22;5671;47.936;8.716;2022-11-15T19:16:34;6.80;91.70
11229;DHT22;5671;47.936;8.716;2022-11-15T19:19:03;6.80;91.80
11229;DHT22;5671;47.936;8.716;2022-11-15T19:21:32;6.80;91.80
11229;DHT22;5671;47.936;8.716;2022-11-15T19:24:00;6.70;92.00
11229;DHT22;5671;47.936;8.716;2022-11-15T19:26:28;6.70;92.30
11229;DHT22;5671;47.936;8.716;2022-11-15T19:28:56;6.70;92.30
11229;DHT22;5671;47.936;8.716;2022-11-15T19:31:24;6.70;92.30
11229;DHT22;5671;47.936;8.716;2022-11-15T19:33:52;6.70;92.20
11229;DHT22;5671;47.936;8.716;2022-11-15T19:36:20;6.70;92.10
11229;DHT22;5671;47.936;8.716;2022-11-15T19:38:49;6.60;92.10
11229;DHT22;5671;47.936;8.716;2022-11-15T19:41:18;6.60;92.10
11229;DHT22;5671;47.936;8.716;2022-11-15T19:43:46;6.70;92.00
11229;DHT22;5671;47.936;8.716;2022-11-15T19:46:14;6.60;92.00
11229;DHT22;5671;47.936;8.716;2022-11-15T19:48:42;6.60;92.20
11229;DHT22;5671;47.936;8.716;2022-11-15T19:51:11;6.60;92.20
11229;DHT22;5671;47.936;8.716;2022-11-15T19:53:38;6.60;92.30
11229;DHT22;5671;47.936;8.716;2022-11-15T19:56:10;6.60;92.20
11229;DHT22;5671;47.936;8.716;2022-11-15T19:58:38;6.60;92.20
11229;DHT22;5671;47.936;8.716;2022-11-15T20:01:07;6.60;92.20
11229;DHT22;5671;47.936;8.716;2022-11-15T20:03:38;6.60;92.20
11229;DHT22;5671;47.936;8.716;2022-11-15T20:06:07;6.60;92.10
11229;DHT22;5671;47.936;8.716;2022-11-15T20:08:39;6.50;92.10
11229;DHT22;5671;47.936;8.716;2022-11-15T20:11:11;6.50;92.10
11229;DHT22;5671;47.936;8.716;2022-11-15T20:13:48;6.50;92.00
11229;DHT22;5671;47.936;8.716;2022-11-15T20:16:23;6.50;92.10
11229;DHT22;5671;47.936;8.716;2022-11-15T20:18:51;6.50;92.10
11229;DHT22;5671;47.936;8.716;2022-11-15T20:21:19;6.50;92.20
11229;DHT22;5671;47.936;8.716;2022-11-15T20:24:02;6.50;92.30
11229;DHT22;5671;47.936;8.716;2022-11-15T20:26:32;6.50;92.30
11229;DHT22;5671;47.936;8.716;2022-11-15T20:29:00;6.50;92.30
11229;DHT22;5671;47.936;8.716;2022-11-15T20:31:28;6.50;92.20
11229;DHT22;5671;47.936;8.716;2022-11-15T20:33:56;6.50;92.10
11229;DHT22;5671;47.936;8.716;2022-11-15T20:36:23;6.50;92.20
11229;DHT22;5671;47.936;8.716;2022-11-15T20:38:50;6.50;92.10
11229;DHT22;5671;47.936;8.716;2022-11-15T20:41:17;6.50;92.10
11229;DHT22;5671;47.936;8.716;2022-11-15T20:43:46;6.50;92.10
11229;DHT22;5671;47.936;8.716;2022-11-15T20:46:13;6.50;92.20
11229;DHT22;5671;47.936;8.716;2022-11-15T20:48:40;6.50;92.20
11229;DHT22;5671;47.936;8.716;2022-11-15T20:51:10;6.50;92.30
11229;DHT22;5671;47.936;8.716;2022-11-15T20:53:37;6.50;92.40
11229;DHT22;5671;47.936;8.716;2022-11-15T20:56:06;6.50;92.40
11229;DHT22;5671;47.936;8.716;2022-11-15T20:58:34;6.50;92.60
11229;DHT22;5671;47.936;8.716;2022-11-15T21:01:02;6.50;92.60
11229;DHT22;5671;47.936;8.716;2022-11-15T21:03:30;6.50;92.70
11229;DHT22;5671;47.936;8.716;2022-11-15T21:05:57;6.50;92.70
11229;DHT22;5671;47.936;8.716;2022-11-15T21:08:24;6.50;92.60
11229;DHT22;5671;47.936;8.716;2022-11-15T21:10:52;6.50;92.60
11229;DHT22;5671;47.936;8.716;2022-11-15T21:13:37;6.50;92.50
11229;DHT22;5671;47.936;8.716;2022-11-15T21:16:07;6.50;92.60
11229;DHT22;5671;47.936;8.716;2022-11-15T21:18:34;6.50;92.60
11229;DHT22;5671;47.936;8.716;2022-11-15T21:21:02;6.50;92.70
11229;DHT22;5671;47.936;8.716;2022-11-15T21:23:31;6.50;92.80
11229;DHT22;5671;47.936;8.716;2022-11-15T21:26:00;6.50;92.90
11229;DHT22;5671;47.936;8.716;2022-11-15T21:28:27;6.50;92.90
11229;DHT22;5671;47.936;8.716;2022-11-15T21:30:55;6.50;92.70
11229;DHT22;5671;47.936;8.716;2022-11-15T21:33:24;6.50;92.70
11229;DHT22;5671;47.936;8.716;2022-11-15T21:35:53;6.50;92.90
11229;DHT22;5671;47.936;8.716;2022-11-15T21:38:20;6.50;92.90
11229;DHT22;5671;47.936;8.716;2022-11-15T21:40:49;6.50;93.00
11229;DHT22;5671;47.936;8.716;2022-11-15T21:43:16;6.50;93.10
11229;DHT22;5671;47.936;8.716;2022-11-15T21:45:54;6.50;93.20
11229;DHT22;5671;47.936;8.716;2022-11-15T21:48:23;6.50;93.20
11229;DHT22;5671;47.936;8.716;2022-11-15T21:50:55;6.50;93.10
11229;DHT22;5671;47.936;8.716;2022-11-15T21:53:22;6.50;93.00
11229;DHT22;5671;47.936;8.716;2022-11-15T21:55:50;6.50;93.10
11229;DHT22;5671;47.936;8.716;2022-11-15T21:58:17;6.50;93.10
11229;DHT22;5671;47.936;8.716;2022-11-15T22:00:44;6.50;93.20
11229;DHT22;5671;47.936;8.716;2022-11-15T22:03:30;6.50;93.20
11229;DHT22;5671;47.936;8.716;2022-11-15T22:05:58;6.50;93.20
11229;DHT22;5671;47.936;8.716;2022-11-15T22:08:25;6.50;93.10
11229;DHT22;5671;47.936;8.716;2022-11-15T22:10:59;6.50;93.10
11229;DHT22;5671;47.936;8.716;2022-11-15T22:13:26;6.50;93.00
11229;DHT22;5671;47.936;8.716;2022-11-15T22:15:53;6.50;92.90
11229;DHT22;5671;47.936;8.716;2022-11-15T22:18:23;6.50;92.90
11229;DHT22;5671;47.936;8.716;2022-11-15T22:20:54;6.50;92.80
11229;DHT22;5671;47.936;8.716;2022-11-15T22:23:22;6.50;92.70
11229;DHT22;5671;47.936;8.716;2022-11-15T22:25:49;6.50;92.80
11229;DHT22;5671;47.936;8.716;2022-11-15T22:28:39;6.50;92.90
11229;DHT22;5671;47.936;8.716;2022-11-15T22:31:07;6.50;93.10
11229;DHT22;5671;47.936;8.716;2022-11-15T22:33:35;6.50;93.10
11229;DHT22;5671;47.936;8.716;2022-11-15T22:36:09;6.50;93.10
11229;DHT22;5671;47.936;8.716;2022-11-15T22:38:36;6.50;93.10
11229;DHT22;5671;47.936;8.716;2022-11-15T22:41:05;6.50;93.20
11229;DHT22;5671;47.936;8.716;2022-11-15T22:43:32;6.50;93.20
11229;DHT22;5671;47.936;8.716;2022-11-15T22:46:00;6.50;93.30
11229;DHT22;5671;47.936;8.716;2022-11-15T22:48:30;6.50;93.30
11229;DHT22;5671;47.936;8.716;2022-11-15T22:50:58;6.50;93.30
11229;DHT22;5671;47.936;8.716;2022-11-15T22:53:27;6.50;93.40
11229;DHT22;5671;47.936;8.716;2022-11-15T22:55:55;6.50;93.40
11229;DHT22;5671;47.936;8.716;2022-11-15T22:58:24;6.50;93.50
11229;DHT22;5671;47.936;8.716;2022-11-15T23:00:54;6.50;93.50
11229;DHT22;5671;47.936;8.716;2022-11-15T23:03:22;6.50;93.50
11229;DHT22;5671;47.936;8.716;2022-11-15T23:05:50;6.50;93.60
11229;DHT22;5671;47.936;8.716;2022-11-15T23:08:38;6.50;93.60
11229;DHT22;5671;47.936;8.716;2022-11-15T23:11:12;6.50;93.60
11229;DHT22;5671;47.936;8.716;2022-11-15T23:14:05;6.50;93.70
11229;DHT22;5671;47.936;8.716;2022-11-15T23:16:35;6.50;93.80
11229;DHT22;5671;47.936;8.716;2022-11-15T23:19:04;6.50;93.80
11229;DHT22;5671;47.936;8.716;2022-11-15T23:21:33;6.50;93.80
11229;DHT22;5671;47.936;8.716;2022-11-15T23:24:18;6.50;93.70
11229;DHT22;5671;47.936;8.716;2022-11-15T23:26:48;6.50;93.70
11229;DHT22;5671;47.936;8.716;2022-11-15T23:29:19;6.50;93.70
11229;DHT22;5671;47.936;8.716;2022-11-15T23:31:47;6.50;93.80
11229;DHT22;5671;47.936;8.716;2022-11-15T23:34:35;6.50;93.80
11229;DHT22;5671;47.936;8.716;2022-11-15T23:37:04;6.50;93.80
11229;DHT22;5671;47.936;8.716;2022-11-15T23:39:31;6.50;93.70
11229;DHT22;5671;47.936;8.716;2022-11-15T23:42:00;6.50;93.60
11229;DHT22;5671;47.936;8.716;2022-11-15T23:44:27;6.50;93.70
11229;DHT22;5671;47.936;8.716;2022-11-15T23:46:55;6.50;93.60